PBD2019 ULAA-ULMM
Flight info
| Callsign | PBD2019 |
|---|---|
| Flight time | 1h 12m |
| Altitude | 38000 |
| Route | RILDA3J RILDA T825 SOTIS T822 LOPRA LOPRA1L |
| Aircraft | B738/M-SDE2E3FGHIRWXY/LB1 |
Departure
| Time | 2026-05-07 19:18 |
|---|---|
| Airport | Talagi Airport (ULAA) |
Arrival
| Time | 2026-05-07 20:30 |
|---|---|
| Airport | Emperor Nicholas II Murmansk Airport (ULMM) |
| Time | Latitude | Longitude | Altitude | Speed | Heading |
|---|---|---|---|---|---|
| 2026-05-07 17:54 | 64.59759 | 40.71498 | 71 ft | 0 kts | 186° |
| 2026-05-07 19:10 | 64.59757 | 40.71497 | 71 ft | 1 kts | 186° |
| 2026-05-07 19:10 | 64.59744 | 40.71494 | 71 ft | 2 kts | 187° |
| 2026-05-07 19:10 | 64.59728 | 40.71487 | 71 ft | 1 kts | 204° |
| 2026-05-07 19:10 | 64.59719 | 40.71458 | 71 ft | 2 kts | 256° |
| 2026-05-07 19:11 | 64.59718 | 40.71401 | 71 ft | 4 kts | 269° |
| 2026-05-07 19:11 | 64.59721 | 40.71334 | 71 ft | 3 kts | 277° |
| 2026-05-07 19:11 | 64.59729 | 40.71264 | 71 ft | 4 kts | 305° |
| 2026-05-07 19:11 | 64.59763 | 40.71257 | 71 ft | 5 kts | 12° |
| 2026-05-07 19:12 | 64.59805 | 40.71271 | 71 ft | 6 kts | 7° |
| 2026-05-07 19:12 | 64.59835 | 40.71209 | 71 ft | 7 kts | 283° |
| 2026-05-07 19:12 | 64.59843 | 40.71070 | 71 ft | 10 kts | 277° |
| 2026-05-07 19:12 | 64.59853 | 40.70889 | 71 ft | 12 kts | 276° |
| 2026-05-07 19:13 | 64.59862 | 40.70672 | 71 ft | 14 kts | 276° |
| 2026-05-07 19:13 | 64.59874 | 40.70434 | 71 ft | 15 kts | 277° |
| 2026-05-07 19:13 | 64.59887 | 40.70182 | 71 ft | 15 kts | 277° |
| 2026-05-07 19:13 | 64.59898 | 40.69926 | 71 ft | 16 kts | 276° |
| 2026-05-07 19:14 | 64.59909 | 40.69670 | 71 ft | 16 kts | 277° |
| 2026-05-07 19:14 | 64.59923 | 40.69405 | 71 ft | 16 kts | 277° |
| 2026-05-07 19:14 | 64.59936 | 40.69142 | 71 ft | 13 kts | 276° |
| 2026-05-07 19:14 | 64.59956 | 40.69031 | 71 ft | 5 kts | 339° |
| 2026-05-07 19:15 | 64.59981 | 40.69024 | 71 ft | 2 kts | 359° |
| 2026-05-07 19:15 | 64.59998 | 40.69030 | 71 ft | 3 kts | 13° |
| 2026-05-07 19:15 | 64.60036 | 40.69041 | 71 ft | 7 kts | 7° |
| 2026-05-07 19:15 | 64.60099 | 40.69058 | 71 ft | 10 kts | 7° |
| 2026-05-07 19:16 | 64.60143 | 40.69073 | 71 ft | 3 kts | 25° |
| 2026-05-07 19:16 | 64.60149 | 40.69111 | 71 ft | 2 kts | 86° |
| 2026-05-07 19:16 | 64.60148 | 40.69134 | 71 ft | 0 kts | 96° |
| 2026-05-07 19:17 | 64.60139 | 40.69347 | 71 ft | 44 kts | 95° |
| 2026-05-07 19:17 | 64.60073 | 40.70662 | 71 ft | 115 kts | 96° |
| 2026-05-07 19:17 | 64.59962 | 40.72984 | 84 ft | 169 kts | 96° |
| 2026-05-07 19:18 | 64.59849 | 40.75661 | 793 ft | 166 kts | 94° |
| 2026-05-07 19:18 | 64.59996 | 40.78311 | 1406 ft | 165 kts | 67° |
| 2026-05-07 19:18 | 64.60701 | 40.80343 | 1956 ft | 167 kts | 33° |
| 2026-05-07 19:18 | 64.61819 | 40.80922 | 2485 ft | 170 kts | 352° |
| 2026-05-07 19:19 | 64.62887 | 40.79532 | 2827 ft | 188 kts | 315° |
| 2026-05-07 19:19 | 64.63765 | 40.77077 | 3078 ft | 211 kts | 316° |
| 2026-05-07 19:19 | 64.64989 | 40.74968 | 3433 ft | 229 kts | 336° |
| 2026-05-07 19:19 | 64.66554 | 40.74150 | 3964 ft | 241 kts | 360° |
| 2026-05-07 19:20 | 64.68255 | 40.73942 | 4550 ft | 253 kts | 353° |
| 2026-05-07 19:20 | 64.69996 | 40.73109 | 5320 ft | 258 kts | 348° |
| 2026-05-07 19:20 | 64.71735 | 40.72126 | 6128 ft | 261 kts | 347° |
| 2026-05-07 19:20 | 64.73493 | 40.71098 | 6945 ft | 264 kts | 346° |
| 2026-05-07 19:21 | 64.75275 | 40.70036 | 7762 ft | 267 kts | 346° |
| 2026-05-07 19:21 | 64.77080 | 40.68948 | 8576 ft | 271 kts | 345° |
| 2026-05-07 19:21 | 64.78896 | 40.67848 | 9377 ft | 274 kts | 345° |
| 2026-05-07 19:21 | 64.80748 | 40.66721 | 10177 ft | 278 kts | 345° |
| 2026-05-07 19:22 | 64.82644 | 40.65566 | 10762 ft | 291 kts | 345° |
| 2026-05-07 19:22 | 64.84706 | 40.64305 | 11009 ft | 317 kts | 345° |
| 2026-05-07 19:22 | 64.86893 | 40.62969 | 11501 ft | 333 kts | 345° |
| 2026-05-07 19:22 | 64.89169 | 40.61577 | 12250 ft | 342 kts | 345° |
| 2026-05-07 19:23 | 64.91471 | 40.60166 | 13098 ft | 347 kts | 344° |
| 2026-05-07 19:23 | 64.93797 | 40.58738 | 13963 ft | 351 kts | 344° |
| 2026-05-07 19:23 | 64.96178 | 40.57273 | 14847 ft | 355 kts | 344° |
| 2026-05-07 19:23 | 64.98558 | 40.55805 | 15713 ft | 359 kts | 344° |
| 2026-05-07 19:24 | 65.00987 | 40.54305 | 16556 ft | 364 kts | 344° |
| 2026-05-07 19:24 | 65.03439 | 40.52788 | 17383 ft | 368 kts | 344° |
| 2026-05-07 19:24 | 65.05931 | 40.51244 | 18193 ft | 371 kts | 344° |
| 2026-05-07 19:24 | 65.08426 | 40.49694 | 18968 ft | 375 kts | 344° |
| 2026-05-07 19:25 | 65.10937 | 40.48132 | 19712 ft | 379 kts | 344° |
| 2026-05-07 19:25 | 65.13508 | 40.46534 | 20451 ft | 383 kts | 344° |
| 2026-05-07 19:25 | 65.16100 | 40.44920 | 21191 ft | 386 kts | 344° |
| 2026-05-07 19:25 | 65.18686 | 40.43301 | 21853 ft | 391 kts | 344° |
| 2026-05-07 19:26 | 65.21317 | 40.41647 | 22559 ft | 393 kts | 344° |
| 2026-05-07 19:26 | 65.23962 | 40.39978 | 23195 ft | 397 kts | 344° |
| 2026-05-07 19:26 | 65.26652 | 40.38279 | 23811 ft | 401 kts | 344° |
| 2026-05-07 19:26 | 65.29367 | 40.36563 | 24375 ft | 406 kts | 344° |
| 2026-05-07 19:27 | 65.32075 | 40.34849 | 24958 ft | 409 kts | 343° |
| 2026-05-07 19:27 | 65.34839 | 40.33095 | 25632 ft | 410 kts | 343° |
| 2026-05-07 19:27 | 65.37582 | 40.31342 | 26180 ft | 413 kts | 343° |
| 2026-05-07 19:27 | 65.40386 | 40.29548 | 26660 ft | 418 kts | 343° |
| 2026-05-07 19:28 | 65.43189 | 40.27755 | 27185 ft | 421 kts | 343° |
| 2026-05-07 19:28 | 65.46043 | 40.25933 | 27710 ft | 424 kts | 343° |
| 2026-05-07 19:28 | 65.48898 | 40.24131 | 28170 ft | 429 kts | 344° |
| 2026-05-07 19:28 | 65.51802 | 40.22436 | 28591 ft | 433 kts | 345° |
| 2026-05-07 19:29 | 65.54761 | 40.20800 | 29035 ft | 437 kts | 345° |
| 2026-05-07 19:29 | 65.57722 | 40.19161 | 29470 ft | 440 kts | 345° |
| 2026-05-07 19:29 | 65.60697 | 40.17506 | 29853 ft | 445 kts | 345° |
| 2026-05-07 19:29 | 65.63733 | 40.15751 | 30256 ft | 447 kts | 343° |
| 2026-05-07 19:30 | 65.66623 | 40.13203 | 30832 ft | 443 kts | 334° |
| 2026-05-07 19:30 | 65.69342 | 40.09876 | 31522 ft | 438 kts | 330° |
| 2026-05-07 19:30 | 65.71880 | 40.05803 | 32084 ft | 435 kts | 322° |
| 2026-05-07 19:30 | 65.74173 | 40.01153 | 32595 ft | 434 kts | 319° |
| 2026-05-07 19:31 | 65.76466 | 39.96394 | 33032 ft | 434 kts | 320° |
| 2026-05-07 19:31 | 65.78797 | 39.91688 | 33448 ft | 434 kts | 321° |
| 2026-05-07 19:31 | 65.81123 | 39.87056 | 33875 ft | 433 kts | 321° |
| 2026-05-07 19:31 | 65.83452 | 39.82373 | 34327 ft | 432 kts | 320° |
| 2026-05-07 19:32 | 65.85747 | 39.77712 | 34751 ft | 431 kts | 320° |
| 2026-05-07 19:32 | 65.88032 | 39.73051 | 35151 ft | 430 kts | 320° |
| 2026-05-07 19:32 | 65.90352 | 39.68313 | 35509 ft | 429 kts | 320° |
| 2026-05-07 19:32 | 65.92615 | 39.63664 | 35873 ft | 428 kts | 320° |
| 2026-05-07 19:33 | 65.94880 | 39.59002 | 36254 ft | 427 kts | 320° |
| 2026-05-07 19:33 | 65.97175 | 39.54321 | 36557 ft | 427 kts | 320° |
| 2026-05-07 19:33 | 65.99436 | 39.49706 | 36891 ft | 426 kts | 321° |
| 2026-05-07 19:33 | 66.01712 | 39.45036 | 37225 ft | 424 kts | 321° |
| 2026-05-07 19:34 | 66.03995 | 39.40385 | 37469 ft | 425 kts | 321° |
| 2026-05-07 19:34 | 66.06271 | 39.35791 | 37719 ft | 425 kts | 321° |
| 2026-05-07 19:34 | 66.08553 | 39.31188 | 37968 ft | 424 kts | 320° |
| 2026-05-07 19:34 | 66.10787 | 39.26630 | 38106 ft | 425 kts | 320° |
| 2026-05-07 19:35 | 66.15276 | 39.17280 | 38102 ft | 416 kts | 319° |
| 2026-05-07 19:35 | 66.19643 | 39.08096 | 38102 ft | 413 kts | 319° |
| 2026-05-07 19:36 | 66.24051 | 38.98895 | 38101 ft | 417 kts | 319° |
| 2026-05-07 19:36 | 66.28480 | 38.89598 | 38101 ft | 421 kts | 318° |
| 2026-05-07 19:37 | 66.32958 | 38.80080 | 38101 ft | 423 kts | 317° |
| 2026-05-07 19:37 | 66.37387 | 38.70530 | 38101 ft | 422 kts | 317° |
| 2026-05-07 19:38 | 66.41832 | 38.60965 | 38101 ft | 423 kts | 318° |
| 2026-05-07 19:38 | 66.46259 | 38.51454 | 38101 ft | 421 kts | 318° |
| 2026-05-07 19:39 | 66.50684 | 38.41837 | 38101 ft | 421 kts | 317° |
| 2026-05-07 19:39 | 66.55075 | 38.32210 | 38101 ft | 422 kts | 317° |
| 2026-05-07 19:40 | 66.59491 | 38.22541 | 38101 ft | 421 kts | 317° |
| 2026-05-07 19:40 | 66.63913 | 38.12864 | 38101 ft | 422 kts | 317° |
| 2026-05-07 19:41 | 66.68324 | 38.03114 | 38100 ft | 421 kts | 317° |
| 2026-05-07 19:41 | 66.72701 | 37.93375 | 38101 ft | 419 kts | 317° |
| 2026-05-07 19:42 | 66.77050 | 37.83623 | 38101 ft | 421 kts | 317° |
| 2026-05-07 19:42 | 66.81432 | 37.73750 | 38101 ft | 421 kts | 317° |
| 2026-05-07 19:43 | 66.85809 | 37.63961 | 38101 ft | 420 kts | 317° |
| 2026-05-07 19:43 | 66.90208 | 37.54071 | 38101 ft | 422 kts | 317° |
| 2026-05-07 19:44 | 66.94561 | 37.44197 | 38100 ft | 421 kts | 317° |
| 2026-05-07 19:44 | 66.98906 | 37.34192 | 38101 ft | 420 kts | 316° |
| 2026-05-07 19:45 | 67.03241 | 37.24164 | 38101 ft | 420 kts | 316° |
| 2026-05-07 19:45 | 67.07558 | 37.14173 | 38100 ft | 421 kts | 316° |
| 2026-05-07 19:46 | 67.11916 | 37.04144 | 38093 ft | 420 kts | 316° |
| 2026-05-07 19:46 | 67.16267 | 36.94028 | 38081 ft | 422 kts | 315° |
| 2026-05-07 19:47 | 67.20575 | 36.83872 | 38073 ft | 421 kts | 315° |
| 2026-05-07 19:47 | 67.24893 | 36.73648 | 38074 ft | 420 kts | 315° |
| 2026-05-07 19:48 | 67.29193 | 36.63416 | 38074 ft | 421 kts | 315° |
| 2026-05-07 19:48 | 67.33505 | 36.53134 | 38074 ft | 421 kts | 315° |
| 2026-05-07 19:49 | 67.37785 | 36.42881 | 38074 ft | 421 kts | 315° |
| 2026-05-07 19:49 | 67.42072 | 36.32536 | 37850 ft | 425 kts | 314° |
| 2026-05-07 19:50 | 67.44244 | 36.27292 | 37596 ft | 423 kts | 314° |
| 2026-05-07 19:50 | 67.46386 | 36.22155 | 37347 ft | 420 kts | 314° |
| 2026-05-07 19:50 | 67.48536 | 36.16990 | 37096 ft | 418 kts | 314° |
| 2026-05-07 19:50 | 67.50667 | 36.11825 | 36846 ft | 417 kts | 314° |
| 2026-05-07 19:51 | 67.52781 | 36.06654 | 36598 ft | 417 kts | 314° |
| 2026-05-07 19:51 | 67.54868 | 36.01523 | 36352 ft | 418 kts | 314° |
| 2026-05-07 19:51 | 67.56992 | 35.96305 | 36102 ft | 418 kts | 314° |
| 2026-05-07 19:51 | 67.59134 | 35.91062 | 35849 ft | 419 kts | 314° |
| 2026-05-07 19:52 | 67.61255 | 35.85870 | 35600 ft | 419 kts | 314° |
| 2026-05-07 19:52 | 67.63374 | 35.80652 | 35350 ft | 420 kts | 314° |
| 2026-05-07 19:52 | 67.65507 | 35.75369 | 35098 ft | 420 kts | 314° |
| 2026-05-07 19:52 | 67.67623 | 35.70081 | 34848 ft | 420 kts | 314° |
| 2026-05-07 19:53 | 67.69715 | 35.64847 | 34599 ft | 420 kts | 314° |
| 2026-05-07 19:53 | 67.71851 | 35.59513 | 34344 ft | 418 kts | 314° |
| 2026-05-07 19:53 | 67.73951 | 35.54265 | 34093 ft | 415 kts | 314° |
| 2026-05-07 19:53 | 67.76032 | 35.49057 | 33842 ft | 413 kts | 314° |
| 2026-05-07 19:54 | 67.78095 | 35.43868 | 33592 ft | 411 kts | 314° |
| 2026-05-07 19:54 | 67.80160 | 35.38647 | 33341 ft | 409 kts | 314° |
| 2026-05-07 19:54 | 67.82206 | 35.33451 | 33090 ft | 407 kts | 313° |
| 2026-05-07 19:54 | 67.84243 | 35.28259 | 32839 ft | 406 kts | 313° |
| 2026-05-07 19:55 | 67.86256 | 35.23125 | 32591 ft | 405 kts | 313° |
| 2026-05-07 19:55 | 67.88272 | 35.17979 | 32340 ft | 403 kts | 313° |
| 2026-05-07 19:55 | 67.90280 | 35.12849 | 32090 ft | 400 kts | 313° |
| 2026-05-07 19:55 | 67.92282 | 35.07746 | 31722 ft | 395 kts | 313° |
| 2026-05-07 19:56 | 67.94244 | 35.02721 | 31225 ft | 392 kts | 313° |
| 2026-05-07 19:56 | 67.96184 | 34.97719 | 30707 ft | 390 kts | 313° |
| 2026-05-07 19:56 | 67.98136 | 34.92668 | 30175 ft | 388 kts | 313° |
| 2026-05-07 19:56 | 68.00056 | 34.87698 | 29649 ft | 386 kts | 313° |
| 2026-05-07 19:57 | 68.01955 | 34.82780 | 29128 ft | 384 kts | 313° |
| 2026-05-07 19:57 | 68.03865 | 34.77819 | 28602 ft | 382 kts | 313° |
| 2026-05-07 19:57 | 68.05778 | 34.72835 | 28074 ft | 380 kts | 313° |
| 2026-05-07 19:57 | 68.07649 | 34.67947 | 27555 ft | 379 kts | 313° |
| 2026-05-07 19:58 | 68.09517 | 34.63057 | 27036 ft | 377 kts | 313° |
| 2026-05-07 19:58 | 68.11384 | 34.58158 | 26515 ft | 375 kts | 313° |
| 2026-05-07 19:58 | 68.13248 | 34.53253 | 25995 ft | 373 kts | 313° |
| 2026-05-07 19:58 | 68.15082 | 34.48416 | 25481 ft | 371 kts | 313° |
| 2026-05-07 19:59 | 68.16921 | 34.43554 | 24965 ft | 370 kts | 313° |
| 2026-05-07 19:59 | 68.18733 | 34.38752 | 24454 ft | 368 kts | 313° |
| 2026-05-07 19:59 | 68.20524 | 34.33994 | 23948 ft | 366 kts | 312° |
| 2026-05-07 19:59 | 68.22350 | 34.29132 | 23430 ft | 365 kts | 312° |
| 2026-05-07 20:00 | 68.24135 | 34.24382 | 22924 ft | 363 kts | 312° |
| 2026-05-07 20:00 | 68.25939 | 34.19581 | 22411 ft | 362 kts | 312° |
| 2026-05-07 20:00 | 68.27710 | 34.14851 | 21907 ft | 360 kts | 312° |
| 2026-05-07 20:00 | 68.29485 | 34.10101 | 21401 ft | 358 kts | 312° |
| 2026-05-07 20:01 | 68.31248 | 34.05367 | 20897 ft | 357 kts | 312° |
| 2026-05-07 20:01 | 68.32999 | 34.00661 | 20395 ft | 355 kts | 312° |
| 2026-05-07 20:01 | 68.34722 | 33.96014 | 19900 ft | 353 kts | 312° |
| 2026-05-07 20:01 | 68.36475 | 33.91276 | 19395 ft | 352 kts | 312° |
| 2026-05-07 20:02 | 68.38180 | 33.86658 | 18903 ft | 350 kts | 312° |
| 2026-05-07 20:02 | 68.39897 | 33.81999 | 18406 ft | 348 kts | 312° |
| 2026-05-07 20:02 | 68.41612 | 33.77336 | 17910 ft | 347 kts | 312° |
| 2026-05-07 20:02 | 68.43288 | 33.72765 | 17424 ft | 345 kts | 312° |
| 2026-05-07 20:03 | 68.44984 | 33.68128 | 16932 ft | 343 kts | 313° |
| 2026-05-07 20:03 | 68.46666 | 33.63522 | 16442 ft | 342 kts | 313° |
| 2026-05-07 20:03 | 68.48330 | 33.58955 | 15956 ft | 340 kts | 313° |
| 2026-05-07 20:03 | 68.49984 | 33.54403 | 15473 ft | 338 kts | 313° |
| 2026-05-07 20:04 | 68.51631 | 33.49862 | 14991 ft | 336 kts | 313° |
| 2026-05-07 20:04 | 68.53264 | 33.45363 | 14511 ft | 335 kts | 313° |
| 2026-05-07 20:04 | 68.54958 | 33.40982 | 14036 ft | 334 kts | 315° |
| 2026-05-07 20:04 | 68.56664 | 33.36710 | 13551 ft | 332 kts | 315° |
| 2026-05-07 20:05 | 68.58328 | 33.32479 | 13080 ft | 331 kts | 314° |
| 2026-05-07 20:05 | 68.60010 | 33.28180 | 12600 ft | 327 kts | 314° |
| 2026-05-07 20:05 | 68.61653 | 33.23978 | 12136 ft | 319 kts | 314° |
| 2026-05-07 20:05 | 68.63187 | 33.19741 | 11679 ft | 310 kts | 306° |
| 2026-05-07 20:06 | 68.64278 | 33.14763 | 11242 ft | 299 kts | 294° |
| 2026-05-07 20:06 | 68.65191 | 33.09799 | 10814 ft | 292 kts | 295° |
| 2026-05-07 20:06 | 68.66135 | 33.04870 | 10441 ft | 287 kts | 295° |
| 2026-05-07 20:06 | 68.67046 | 33.00074 | 10246 ft | 278 kts | 294° |
| 2026-05-07 20:07 | 68.67925 | 32.95416 | 10026 ft | 271 kts | 294° |
| 2026-05-07 20:07 | 68.68791 | 32.90810 | 9662 ft | 270 kts | 294° |
| 2026-05-07 20:07 | 68.69643 | 32.86266 | 9315 ft | 269 kts | 294° |
| 2026-05-07 20:07 | 68.70507 | 32.81656 | 8964 ft | 267 kts | 294° |
| 2026-05-07 20:08 | 68.71349 | 32.77145 | 8623 ft | 266 kts | 294° |
| 2026-05-07 20:08 | 68.72193 | 32.72619 | 8280 ft | 265 kts | 294° |
| 2026-05-07 20:08 | 68.73029 | 32.68120 | 7939 ft | 264 kts | 294° |
| 2026-05-07 20:08 | 68.73862 | 32.63634 | 7600 ft | 263 kts | 294° |
| 2026-05-07 20:09 | 68.74692 | 32.59153 | 7260 ft | 262 kts | 294° |
| 2026-05-07 20:09 | 68.75519 | 32.54679 | 7055 ft | 257 kts | 294° |
| 2026-05-07 20:09 | 68.76305 | 32.50388 | 7097 ft | 246 kts | 298° |
| 2026-05-07 20:10 | 68.77986 | 32.42241 | 7096 ft | 240 kts | 315° |
| 2026-05-07 20:10 | 68.79283 | 32.39581 | 7007 ft | 232 kts | 327° |
| 2026-05-07 20:10 | 68.80610 | 32.37141 | 6781 ft | 228 kts | 326° |
| 2026-05-07 20:10 | 68.81913 | 32.34687 | 6530 ft | 225 kts | 325° |
| 2026-05-07 20:11 | 68.83204 | 32.32262 | 6278 ft | 222 kts | 325° |
| 2026-05-07 20:11 | 68.84586 | 32.30364 | 5955 ft | 222 kts | 346° |
| 2026-05-07 20:11 | 68.86108 | 32.30563 | 5650 ft | 221 kts | 14° |
| 2026-05-07 20:11 | 68.87410 | 32.32627 | 5318 ft | 220 kts | 40° |
| 2026-05-07 20:12 | 68.88326 | 32.36024 | 4940 ft | 218 kts | 54° |
| 2026-05-07 20:12 | 68.89165 | 32.39503 | 4508 ft | 218 kts | 53° |
| 2026-05-07 20:12 | 68.89993 | 32.42894 | 4046 ft | 208 kts | 53° |
| 2026-05-07 20:12 | 68.90630 | 32.46371 | 3579 ft | 201 kts | 75° |
| 2026-05-07 20:13 | 68.90571 | 32.50108 | 3133 ft | 193 kts | 105° |
| 2026-05-07 20:13 | 68.89865 | 32.53133 | 2674 ft | 186 kts | 139° |
| 2026-05-07 20:13 | 68.88836 | 32.55178 | 2287 ft | 176 kts | 142° |
| 2026-05-07 20:13 | 68.87888 | 32.57037 | 2010 ft | 159 kts | 145° |
| 2026-05-07 20:14 | 68.86974 | 32.58762 | 2024 ft | 158 kts | 145° |
| 2026-05-07 20:14 | 68.86050 | 32.60492 | 2018 ft | 159 kts | 145° |
| 2026-05-07 20:14 | 68.85137 | 32.62194 | 2019 ft | 159 kts | 144° |
| 2026-05-07 20:14 | 68.84231 | 32.63881 | 2030 ft | 153 kts | 144° |
| 2026-05-07 20:15 | 68.83344 | 32.65532 | 1873 ft | 152 kts | 146° |
| 2026-05-07 20:15 | 68.82467 | 32.67163 | 1675 ft | 149 kts | 146° |
| 2026-05-07 20:15 | 68.81617 | 32.68744 | 1479 ft | 148 kts | 147° |
| 2026-05-07 20:15 | 68.80751 | 32.70353 | 1278 ft | 147 kts | 148° |
| 2026-05-07 20:16 | 68.79905 | 32.71919 | 1082 ft | 146 kts | 146° |
| 2026-05-07 20:16 | 68.79050 | 32.73466 | 892 ft | 144 kts | 146° |
| 2026-05-07 20:16 | 68.78271 | 32.74907 | 887 ft | 136 kts | 146° |
| 2026-05-07 20:16 | 68.77480 | 32.76345 | 1235 ft | 141 kts | 146° |
| 2026-05-07 20:17 | 68.76647 | 32.77922 | 1678 ft | 144 kts | 144° |
| 2026-05-07 20:17 | 68.75827 | 32.79475 | 2250 ft | 148 kts | 146° |
| 2026-05-07 20:17 | 68.74966 | 32.81058 | 2727 ft | 157 kts | 146° |
| 2026-05-07 20:17 | 68.74010 | 32.82818 | 2958 ft | 170 kts | 146° |
| 2026-05-07 20:18 | 68.72993 | 32.84690 | 3021 ft | 175 kts | 146° |
| 2026-05-07 20:18 | 68.71983 | 32.86549 | 3020 ft | 174 kts | 146° |
| 2026-05-07 20:18 | 68.70974 | 32.88400 | 3021 ft | 174 kts | 146° |
| 2026-05-07 20:18 | 68.69972 | 32.90237 | 3126 ft | 172 kts | 146° |
| 2026-05-07 20:19 | 68.68961 | 32.92089 | 3309 ft | 175 kts | 146° |
| 2026-05-07 20:19 | 68.67847 | 32.93356 | 3467 ft | 175 kts | 180° |
| 2026-05-07 20:19 | 68.66713 | 32.92360 | 3631 ft | 176 kts | 213° |
| 2026-05-07 20:19 | 68.65784 | 32.90185 | 3613 ft | 172 kts | 237° |
| 2026-05-07 20:20 | 68.65391 | 32.87176 | 3624 ft | 172 kts | 268° |
| 2026-05-07 20:20 | 68.65602 | 32.83754 | 3614 ft | 197 kts | 297° |
| 2026-05-07 20:20 | 68.66494 | 32.80528 | 3629 ft | 229 kts | 312° |
| 2026-05-07 20:20 | 68.67546 | 32.77047 | 3616 ft | 246 kts | 310° |
| 2026-05-07 20:21 | 68.68642 | 32.73348 | 3617 ft | 250 kts | 310° |
| 2026-05-07 20:21 | 68.69756 | 32.69606 | 3616 ft | 251 kts | 310° |
| 2026-05-07 20:21 | 68.70857 | 32.65902 | 3619 ft | 251 kts | 310° |
| 2026-05-07 20:21 | 68.71965 | 32.62171 | 3619 ft | 251 kts | 310° |
| 2026-05-07 20:22 | 68.73058 | 32.58486 | 3618 ft | 251 kts | 310° |
| 2026-05-07 20:22 | 68.74166 | 32.54742 | 3620 ft | 251 kts | 310° |
| 2026-05-07 20:22 | 68.75275 | 32.50991 | 3620 ft | 251 kts | 310° |
| 2026-05-07 20:22 | 68.76372 | 32.47270 | 3619 ft | 251 kts | 310° |
| 2026-05-07 20:23 | 68.77477 | 32.43554 | 3619 ft | 251 kts | 313° |
| 2026-05-07 20:23 | 68.78805 | 32.40487 | 3623 ft | 250 kts | 327° |
| 2026-05-07 20:23 | 68.80266 | 32.37782 | 3550 ft | 252 kts | 327° |
| 2026-05-07 20:23 | 68.81690 | 32.35107 | 3411 ft | 244 kts | 327° |
| 2026-05-07 20:24 | 68.83076 | 32.32500 | 3204 ft | 238 kts | 326° |
| 2026-05-07 20:24 | 68.84482 | 32.30253 | 2971 ft | 233 kts | 342° |
| 2026-05-07 20:24 | 68.86057 | 32.30231 | 2757 ft | 225 kts | 17° |
| 2026-05-07 20:24 | 68.87369 | 32.32438 | 2580 ft | 217 kts | 44° |
| 2026-05-07 20:25 | 68.88251 | 32.35729 | 2431 ft | 208 kts | 55° |
| 2026-05-07 20:25 | 68.89038 | 32.38979 | 2273 ft | 199 kts | 54° |
| 2026-05-07 20:25 | 68.89794 | 32.42079 | 2212 ft | 186 kts | 54° |
| 2026-05-07 20:25 | 68.90510 | 32.45018 | 2225 ft | 177 kts | 56° |
| 2026-05-07 20:26 | 68.90906 | 32.48067 | 2218 ft | 167 kts | 86° |
| 2026-05-07 20:26 | 68.90648 | 32.51211 | 2213 ft | 170 kts | 118° |
| 2026-05-07 20:26 | 68.89829 | 32.53526 | 2162 ft | 170 kts | 147° |
| 2026-05-07 20:26 | 68.88827 | 32.55284 | 2100 ft | 170 kts | 144° |
| 2026-05-07 20:27 | 68.87851 | 32.57120 | 2050 ft | 169 kts | 145° |
| 2026-05-07 20:27 | 68.86879 | 32.58940 | 2018 ft | 168 kts | 145° |
| 2026-05-07 20:27 | 68.85912 | 32.60746 | 2020 ft | 169 kts | 145° |
| 2026-05-07 20:27 | 68.84937 | 32.62568 | 2020 ft | 169 kts | 145° |
| 2026-05-07 20:28 | 68.83969 | 32.64369 | 2022 ft | 161 kts | 145° |
| 2026-05-07 20:28 | 68.83071 | 32.66047 | 1850 ft | 154 kts | 146° |
| 2026-05-07 20:28 | 68.82203 | 32.67659 | 1619 ft | 149 kts | 146° |
| 2026-05-07 20:28 | 68.81343 | 32.69249 | 1414 ft | 148 kts | 147° |
| 2026-05-07 20:29 | 68.80501 | 32.70820 | 1212 ft | 146 kts | 146° |
| 2026-05-07 20:29 | 68.79655 | 32.72369 | 1026 ft | 145 kts | 147° |
| 2026-05-07 20:29 | 68.78811 | 32.73923 | 871 ft | 142 kts | 146° |
| 2026-05-07 20:29 | 68.78166 | 32.75116 | 867 ft | 73 kts | 146° |
| 2026-05-07 20:30 | 68.77889 | 32.75632 | 867 ft | 38 kts | 146° |
| 2026-05-07 20:30 | 68.77687 | 32.76001 | 867 ft | 32 kts | 146° |
| 2026-05-07 20:30 | 68.77546 | 32.76272 | 867 ft | 10 kts | 133° |
| 2026-05-07 20:30 | 68.77507 | 32.76371 | 867 ft | 4 kts | 184° |
| 2026-05-07 20:31 | 68.77510 | 32.76311 | 867 ft | 6 kts | 327° |
| 2026-05-07 20:31 | 68.77570 | 32.76211 | 867 ft | 13 kts | 329° |
| 2026-05-07 20:31 | 68.77668 | 32.76045 | 867 ft | 19 kts | 327° |
| 2026-05-07 20:31 | 68.77805 | 32.75801 | 867 ft | 26 kts | 326° |
| 2026-05-07 20:32 | 68.77970 | 32.75488 | 867 ft | 30 kts | 325° |
| 2026-05-07 20:32 | 68.78136 | 32.75176 | 867 ft | 27 kts | 326° |
| 2026-05-07 20:32 | 68.78248 | 32.74976 | 867 ft | 9 kts | 338° |
| 2026-05-07 20:32 | 68.78303 | 32.74997 | 867 ft | 6 kts | 40° |
| 2026-05-07 20:33 | 68.78322 | 32.75074 | 867 ft | 4 kts | 57° |
| 2026-05-07 20:33 | 68.78336 | 32.75130 | 867 ft | 2 kts | 57° |
| 2026-05-07 20:33 | 68.78346 | 32.75175 | 867 ft | 3 kts | 57° |
| 2026-05-07 20:33 | 68.78365 | 32.75260 | 867 ft | 6 kts | 57° |
| 2026-05-07 20:34 | 68.78397 | 32.75393 | 867 ft | 9 kts | 57° |
| 2026-05-07 20:34 | 68.78426 | 32.75517 | 867 ft | 4 kts | 56° |
| 2026-05-07 20:34 | 68.78447 | 32.75551 | 867 ft | 2 kts | 359° |
| 2026-05-07 20:34 | 68.78467 | 32.75528 | 867 ft | 3 kts | 328° |
| 2026-05-07 20:35 | 68.78487 | 32.75491 | 867 ft | 1 kts | 327° |
| 2026-05-07 20:35 | 68.78492 | 32.75483 | 867 ft | 0 kts | 327° |
| 2026-05-07 20:35 | 68.78494 | 32.75481 | 867 ft | 0 kts | 327° |